createdAt,value
2024-02-26T00:02:37.770Z,17.73
2024-02-26T00:12:39.081Z,17.69
2024-02-26T00:22:40.345Z,17.93
2024-02-26T00:32:41.763Z,17.81
2024-02-26T00:42:43.128Z,17.76
2024-02-26T00:52:44.454Z,17.69
2024-02-26T01:02:45.843Z,17.76
2024-02-26T01:12:47.117Z,17.74
2024-02-26T01:22:48.371Z,17.66
2024-02-26T01:32:49.813Z,17.80
2024-02-26T01:42:51.171Z,17.78
2024-02-26T01:52:52.456Z,17.72
2024-02-26T02:02:53.883Z,17.70
2024-02-26T02:12:55.210Z,17.70
2024-02-26T02:22:56.507Z,17.71
2024-02-26T02:32:57.854Z,17.72
2024-02-26T02:42:59.199Z,17.71
2024-02-26T02:53:00.482Z,17.71
2024-02-26T03:03:01.958Z,17.70
2024-02-26T03:13:03.248Z,17.63
2024-02-26T03:23:04.539Z,17.60
2024-02-26T03:33:05.931Z,17.62
2024-02-26T03:43:07.297Z,17.66
2024-02-26T03:53:10.273Z,17.60
2024-02-26T04:03:12.813Z,17.61
2024-02-26T04:13:14.097Z,17.61
2024-02-26T04:23:15.357Z,17.64
2024-02-26T04:33:16.746Z,17.59
2024-02-26T04:43:18.066Z,17.65
2024-02-26T04:53:19.367Z,17.60
2024-02-26T05:03:20.709Z,17.54
2024-02-26T05:13:23.221Z,17.54
2024-02-26T05:23:24.519Z,17.51
2024-02-26T05:33:25.921Z,17.51
2024-02-26T05:43:27.325Z,17.52
2024-02-26T05:53:28.578Z,17.45
2024-02-26T06:03:29.945Z,17.57
2024-02-26T06:13:31.274Z,17.58
2024-02-26T06:23:32.561Z,17.66
2024-02-26T06:33:34.029Z,17.58
2024-02-26T06:43:35.473Z,17.48
2024-02-26T06:53:36.746Z,17.50
2024-02-26T07:03:38.104Z,17.57
2024-02-26T07:13:39.436Z,17.53
2024-02-26T07:23:40.728Z,17.48
2024-02-26T07:33:42.182Z,17.86
2024-02-26T07:43:43.532Z,17.71
2024-02-26T07:53:44.861Z,17.74
2024-02-26T08:03:46.279Z,17.80
2024-02-26T08:13:47.608Z,17.76
2024-02-26T08:23:48.929Z,17.74
2024-02-26T08:33:57.076Z,17.85
2024-02-26T08:44:00.217Z,17.72
2024-02-26T08:54:01.693Z,17.96
2024-02-26T09:04:06.187Z,17.93
2024-02-26T09:14:07.504Z,17.77
2024-02-26T09:24:08.817Z,17.69
2024-02-26T09:34:10.207Z,17.82
2024-02-26T09:44:11.579Z,17.88
2024-02-26T09:54:12.862Z,17.88
2024-02-26T10:04:14.209Z,17.64
2024-02-26T10:14:15.792Z,17.68
2024-02-26T10:24:18.021Z,17.65
2024-02-26T10:34:20.225Z,17.66
2024-02-26T10:44:22.133Z,17.65
2024-02-26T10:54:23.492Z,17.67
2024-02-26T11:04:24.924Z,17.60
2024-02-26T11:14:26.270Z,17.69
2024-02-26T11:24:27.629Z,17.60
2024-02-26T11:34:29.061Z,17.65
2024-02-26T11:44:30.485Z,17.69
2024-02-26T11:54:31.861Z,17.71
2024-02-26T12:04:33.245Z,17.74
2024-02-26T12:14:34.891Z,17.75
2024-02-26T12:24:36.582Z,17.89
2024-02-26T12:34:38.011Z,17.89
2024-02-26T12:44:39.434Z,17.85
2024-02-26T12:54:40.818Z,17.93
2024-02-26T13:04:42.242Z,17.94
2024-02-26T13:14:43.565Z,17.96
2024-02-26T13:24:44.817Z,17.96
2024-02-26T13:34:46.248Z,18.11
2024-02-26T13:44:47.702Z,18.08
2024-02-26T13:54:49.777Z,18.12
2024-02-26T14:15:19.913Z,18.25
2024-02-26T14:25:22.015Z,18.19
2024-02-26T14:35:32.954Z,18.21
2024-02-26T14:45:37.489Z,18.29
2024-02-26T14:55:42.473Z,18.32
2024-02-26T15:05:50.198Z,18.39
2024-02-26T15:15:51.833Z,18.48
2024-02-26T15:25:53.305Z,18.40
2024-02-26T15:35:54.682Z,18.42
2024-02-26T15:45:56.012Z,18.47
2024-02-26T15:55:57.296Z,18.54
2024-02-26T16:05:58.650Z,18.58
2024-02-26T16:16:00.290Z,18.48
2024-02-26T16:26:01.688Z,18.48
2024-02-26T16:36:03.064Z,18.63
2024-02-26T16:46:04.993Z,18.54
2024-02-26T16:56:06.358Z,18.60
2024-02-26T17:06:07.727Z,18.58
2024-02-26T17:16:09.043Z,18.57
2024-02-26T17:26:10.298Z,18.53
2024-02-26T17:36:11.630Z,18.45
2024-02-26T17:46:12.917Z,18.59
2024-02-26T17:56:14.398Z,18.46
2024-02-26T18:06:15.950Z,18.50
2024-02-26T18:16:17.300Z,18.54
2024-02-26T18:26:18.580Z,18.42
2024-02-26T18:36:19.932Z,18.41
2024-02-26T18:46:21.248Z,18.41
2024-02-26T18:56:22.597Z,18.35
2024-02-26T19:06:23.955Z,18.29
2024-02-26T19:16:26.495Z,18.42
2024-02-26T19:26:27.808Z,18.32
2024-02-26T19:36:29.221Z,18.27
2024-02-26T19:46:30.559Z,18.28
2024-02-26T19:56:31.819Z,18.30
2024-02-26T20:06:33.270Z,18.29
2024-02-26T20:16:34.606Z,18.24
2024-02-26T20:26:35.876Z,18.15
2024-02-26T20:36:37.205Z,18.23
2024-02-26T20:46:38.568Z,18.09
2024-02-26T20:56:39.843Z,18.11
2024-02-26T21:06:41.229Z,18.13
2024-02-26T21:16:42.566Z,18.07
2024-02-26T21:26:43.923Z,18.11
2024-02-26T21:36:45.307Z,18.03
2024-02-26T21:46:46.622Z,17.94
2024-02-26T21:56:47.928Z,18.03
2024-02-26T22:06:49.277Z,17.98
2024-02-26T22:16:50.631Z,17.92
2024-02-26T22:26:52.091Z,18.02
2024-02-26T22:36:53.373Z,18.10
2024-02-26T22:46:54.693Z,17.86
2024-02-26T22:56:56.048Z,17.84
2024-02-26T23:06:57.381Z,17.96
2024-02-26T23:16:58.724Z,17.98
2024-02-26T23:27:00.100Z,17.93
2024-02-26T23:37:01.418Z,17.93
2024-02-26T23:47:02.761Z,18.07
2024-02-26T23:57:04.147Z,18.03
